Karina — WDE7823 — position and weather

sailwx.info

Track history (hours):
 
Tides and Currents Weather Stations Pressure Air Temp Water Temp Dewpoint Dewpoint Depression Visibility Wind Speed Wind Dir Waves Ship Positions

Karina

Owner: Karina, LLC, Cape May Court House, NJ. More information available from US FCC via Universal Licensing System and Coast Guard Vessel Documentation Center.

Last reported at 2015-Jul-31 13:15 UTC. Time now 2015-Aug-04 01:23 UTC.
Position N 39°42' W 073°50'.

Length 21 m.

Type: Pleasure craft. MMSI: 367398120.

Date/timePositionNaut miles runAvg speedWind from/ knotsBaromVisibWave heightAir tempDewpointWater temp
2015-Jul-31 13:15N 39°42' W 073°50'911.2
2015-Jul-31 12:25N 39°48' W 073°41'8 8.5
2015-Jul-31 11:32N 39°53' W 073°34'9 9.0
2015-Jul-31 10:33N 39°59' W 073°26'9 9.0
2015-Jul-31 09:33N 40°05' W 073°16'9 9.3
2015-Jul-31 08:33N 40°10' W 073°06'9 7.9
2015-Jul-31 07:22N 40°15' W 072°56'49 8.3
2015-Jul-31 01:26N 40°47' W 072°07'7 7.9
2015-Jul-31 00:33N 40°52' W 072°01'8 7.8
2015-Jul-30 23:33N 40°58' W 071°54'7 7.2
2015-Jul-30 22:33N 41°03' W 071°47'8 7.8
2015-Jul-30 21:33N 41°09' W 071°41'8 8.4
2015-Jul-30 20:33N 41°17' W 071°36'7 6.5
2015-Jul-30 19:29N 41°23' W 071°31'0 0.0
2015-Jul-30 18:32N 41°23' W 071°31'0 0.0
2015-Jul-30 17:32N 41°23' W 071°31'0 0.0
2015-Jul-30 16:32N 41°23' W 071°31'0 0.1
2015-Jul-30 15:31N 41°23' W 071°31'0 0.1
2015-Jul-30 14:32N 41°23' W 071°31'0 0.0
2015-Jul-30 13:32N 41°23' W 071°31'0 0.0
2015-Jul-30 12:29N 41°23' W 071°31'0 0.0
2015-Jul-30 11:32N 41°23' W 071°31'0 0.0
2015-Jul-30 10:32N 41°23' W 071°31'0 0.0
2015-Jul-30 09:32N 41°23' W 071°31'0 0.1
2015-Jul-30 08:26N 41°23' W 071°31'7 7.8
2015-Jul-30 07:33N 41°17' W 071°36'  
2015-Jul-27 23:19N 41°00' W 071°33'1 0.9
2015-Jul-27 22:33N 40°60' W 071°33'1 0.6
2015-Jul-27 21:33N 41°00' W 071°33'1 0.9
2015-Jul-27 20:34N 41°00' W 071°34'0 0.3
2015-Jul-27 19:33N 40°60' W 071°34'0 0.3
2015-Jul-27 18:33N 40°60' W 071°34'1 0.5
2015-Jul-27 17:24N 40°59' W 071°34'1 0.8
2015-Jul-27 16:33N 40°59' W 071°35'3 2.6
2015-Jul-27 15:33N 40°56' W 071°36'4 4.3
2015-Jul-27 14:33N 40°54' W 071°41'0 0.3
2015-Jul-27 13:21N 40°54' W 071°40'  
2015-Jul-22 21:33N 41°06' W 071°42'8 8.2
2015-Jul-22 20:33N 41°14' W 071°38'8 7.9
2015-Jul-22 19:33N 41°20' W 071°32'3 2.5
2015-Jul-22 18:23N 41°23' W 071°31'0 0.0
2015-Jul-22 17:32N 41°23' W 071°31'0 0.1
2015-Jul-22 16:31N 41°23' W 071°31'  
Track history (hours):
 
Tides and Currents Weather Stations Pressure Air Temp Water Temp Dewpoint Dewpoint Depression Visibility Wind Speed Wind Dir Waves Ship Positions

Karina

Owner: Karina, LLC, Cape May Court House, NJ. More information available from US FCC via Universal Licensing System and Coast Guard Vessel Documentation Center.

Last reported at 2015-Jul-31 13:15 UTC. Time now 2015-Aug-04 01:23 UTC.
Position N 39°42' W 073°50'.

Length 21 m.

Type: Pleasure craft. MMSI: 367398120.

Date/timePositionNaut miles runAvg speedWind from/ knotsBaromVisibWave heightAir tempDewpointWater temp
2015-Jul-31 13:15N 39°42' W 073°50'911.2
2015-Jul-31 12:25N 39°48' W 073°41'8 8.5
2015-Jul-31 11:32N 39°53' W 073°34'9 9.0
2015-Jul-31 10:33N 39°59' W 073°26'9 9.0
2015-Jul-31 09:33N 40°05' W 073°16'9 9.3
2015-Jul-31 08:33N 40°10' W 073°06'9 7.9
2015-Jul-31 07:22N 40°15' W 072°56'49 8.3
2015-Jul-31 01:26N 40°47' W 072°07'7 7.9
2015-Jul-31 00:33N 40°52' W 072°01'8 7.8
2015-Jul-30 23:33N 40°58' W 071°54'7 7.2
2015-Jul-30 22:33N 41°03' W 071°47'8 7.8
2015-Jul-30 21:33N 41°09' W 071°41'8 8.4
2015-Jul-30 20:33N 41°17' W 071°36'7 6.5
2015-Jul-30 19:29N 41°23' W 071°31'0 0.0
2015-Jul-30 18:32N 41°23' W 071°31'0 0.0
2015-Jul-30 17:32N 41°23' W 071°31'0 0.0
2015-Jul-30 16:32N 41°23' W 071°31'0 0.1
2015-Jul-30 15:31N 41°23' W 071°31'0 0.1
2015-Jul-30 14:32N 41°23' W 071°31'0 0.0
2015-Jul-30 13:32N 41°23' W 071°31'0 0.0
2015-Jul-30 12:29N 41°23' W 071°31'0 0.0
2015-Jul-30 11:32N 41°23' W 071°31'0 0.0
2015-Jul-30 10:32N 41°23' W 071°31'0 0.0
2015-Jul-30 09:32N 41°23' W 071°31'0 0.1
2015-Jul-30 08:26N 41°23' W 071°31'7 7.8
2015-Jul-30 07:33N 41°17' W 071°36'  
2015-Jul-27 23:19N 41°00' W 071°33'1 0.9
2015-Jul-27 22:33N 40°60' W 071°33'1 0.6
2015-Jul-27 21:33N 41°00' W 071°33'1 0.9
2015-Jul-27 20:34N 41°00' W 071°34'0 0.3
2015-Jul-27 19:33N 40°60' W 071°34'0 0.3
2015-Jul-27 18:33N 40°60' W 071°34'1 0.5
2015-Jul-27 17:24N 40°59' W 071°34'1 0.8
2015-Jul-27 16:33N 40°59' W 071°35'3 2.6
2015-Jul-27 15:33N 40°56' W 071°36'4 4.3
2015-Jul-27 14:33N 40°54' W 071°41'0 0.3
2015-Jul-27 13:21N 40°54' W 071°40'  
2015-Jul-22 21:33N 41°06' W 071°42'8 8.2
2015-Jul-22 20:33N 41°14' W 071°38'8 7.9
2015-Jul-22 19:33N 41°20' W 071°32'3 2.5
2015-Jul-22 18:23N 41°23' W 071°31'0 0.0
2015-Jul-22 17:32N 41°23' W 071°31'0 0.1
2015-Jul-22 16:31N 41°23' W 071°31'  

Dump ship's entire track history